createdAt,value
2019-03-01T00:04:45.572Z,71.32
2019-03-01T00:07:51.720Z,72.59
2019-03-01T00:14:02.430Z,74.88
2019-03-01T00:17:08.554Z,75.56
2019-03-01T00:20:14.902Z,76.33
2019-03-01T00:23:21.014Z,76.88
2019-03-01T00:26:27.276Z,77.71
2019-03-01T00:29:33.409Z,77.85
2019-03-01T00:32:39.555Z,78.40
2019-03-01T00:39:14.284Z,79.01
2019-03-01T00:42:07.642Z,79.38
2019-03-01T00:44:54.310Z,79.62
2019-03-01T00:47:21.460Z,80.36
2019-03-01T00:49:48.642Z,80.45
2019-03-01T00:52:15.852Z,80.80
2019-03-01T00:54:43.032Z,81.09
2019-03-01T01:03:16.268Z,80.13
2019-03-01T01:08:44.644Z,79.36
2019-03-01T01:11:52.688Z,79.70
2019-03-01T01:17:20.989Z,80.08
2019-03-01T01:19:48.153Z,80.20
2019-03-01T01:22:27.852Z,79.76
2019-03-01T01:24:55.014Z,79.52
2019-03-01T01:27:22.532Z,79.63
2019-03-01T01:29:49.750Z,80.01
2019-03-01T01:35:30.918Z,80.19
2019-03-01T01:38:29.763Z,79.66
2019-03-01T01:43:58.158Z,79.51
2019-03-01T01:46:25.368Z,80.00
2019-03-01T01:48:52.556Z,80.00
2019-03-01T01:54:34.284Z,80.19
2019-03-01T01:57:01.465Z,79.83
2019-03-01T01:59:28.617Z,79.42
2019-03-01T02:02:36.672Z,79.44
2019-03-01T02:08:24.419Z,78.92
2019-03-01T02:10:51.959Z,78.90
2019-03-01T02:13:19.199Z,79.22
2019-03-01T02:15:46.392Z,79.51
2019-03-01T02:18:13.505Z,79.64
2019-03-01T02:20:40.561Z,79.78
2019-03-01T02:23:07.767Z,79.85
2019-03-01T02:25:34.936Z,79.62
2019-03-01T02:28:02.116Z,79.19
2019-03-01T02:30:29.469Z,78.69
2019-03-01T02:32:56.672Z,78.15
2019-03-01T02:35:25.207Z,77.87
2019-03-01T02:37:52.464Z,78.25
2019-03-01T02:40:19.641Z,78.67
2019-03-01T02:42:46.853Z,78.95
2019-03-01T02:45:15.703Z,79.26
2019-03-01T02:47:42.776Z,78.13
2019-03-01T02:50:11.267Z,77.47
2019-03-01T02:52:38.491Z,77.29
2019-03-01T02:55:47.122Z,77.39
2019-03-01T02:58:14.407Z,77.01
2019-03-01T03:00:41.567Z,77.42
2019-03-01T03:03:08.733Z,78.16
2019-03-01T03:08:27.388Z,77.96
2019-03-01T03:10:54.577Z,78.00
2019-03-01T03:13:21.728Z,78.35
2019-03-01T03:16:29.770Z,78.40
2019-03-01T03:18:57.075Z,77.36
2019-03-01T03:24:45.362Z,78.14
2019-03-01T03:27:24.806Z,78.72
2019-03-01T03:29:51.996Z,79.00
2019-03-01T03:32:19.215Z,79.16
2019-03-01T03:35:07.350Z,79.44
2019-03-01T03:37:34.531Z,79.69
2019-03-01T03:40:01.734Z,79.16
2019-03-01T03:42:29.130Z,79.30
2019-03-01T03:44:56.268Z,79.44
2019-03-01T03:47:23.383Z,79.60
2019-03-01T03:49:51.127Z,79.47
2019-03-01T03:52:18.287Z,79.32
2019-03-01T03:54:45.471Z,79.10
2019-03-01T03:57:12.759Z,78.90
2019-03-01T03:59:39.996Z,79.46
2019-03-01T04:02:07.177Z,79.57
2019-03-01T04:04:34.360Z,79.81
2019-03-01T04:07:01.562Z,80.40
2019-03-01T04:09:29.082Z,80.63
2019-03-01T04:11:57.229Z,80.35
2019-03-01T04:14:24.588Z,80.85
2019-03-01T04:16:51.793Z,81.27
2019-03-01T04:19:18.975Z,81.34
2019-03-01T04:21:46.154Z,81.76
2019-03-01T04:24:13.622Z,82.31
2019-03-01T04:26:40.856Z,82.33
2019-03-01T04:29:08.036Z,82.66
2019-03-01T04:31:35.228Z,82.66
2019-03-01T04:34:02.465Z,82.58
2019-03-01T04:36:29.664Z,82.56
2019-03-01T04:38:56.928Z,82.23
2019-03-01T04:41:24.294Z,82.03
2019-03-01T04:43:51.548Z,82.40
2019-03-01T04:46:19.144Z,82.23
2019-03-01T04:48:46.584Z,82.39
2019-03-01T04:51:13.759Z,82.70
2019-03-01T04:53:41.033Z,82.85
2019-03-01T04:56:08.342Z,83.41
2019-03-01T04:58:35.550Z,83.17
2019-03-01T05:01:03.242Z,83.39
2019-03-01T05:03:30.575Z,83.46
2019-03-01T05:05:57.693Z,83.71
2019-03-01T05:08:24.966Z,83.97
2019-03-01T05:10:52.157Z,84.14
2019-03-01T05:13:19.337Z,84.30
2019-03-01T05:15:46.803Z,84.21
2019-03-01T05:18:14.599Z,84.27
2019-03-01T05:20:41.643Z,84.42
2019-03-01T05:23:08.845Z,84.17
2019-03-01T05:25:36.045Z,84.34
2019-03-01T05:28:03.222Z,84.33
2019-03-01T05:30:30.365Z,84.41
2019-03-01T05:32:57.594Z,84.53
2019-03-01T05:35:24.730Z,84.51
2019-03-01T05:37:51.879Z,84.57
2019-03-01T05:40:19.206Z,84.59
2019-03-01T05:42:46.363Z,84.60
2019-03-01T05:45:19.067Z,84.57
2019-03-01T05:47:46.146Z,84.59
2019-03-01T05:50:13.507Z,84.63
2019-03-01T05:52:40.774Z,84.50
2019-03-01T05:55:08.313Z,84.09
2019-03-01T05:57:35.847Z,84.00
2019-03-01T06:00:06.050Z,83.94
2019-03-01T06:03:22.715Z,83.42
2019-03-01T06:05:50.011Z,83.48
2019-03-01T06:08:48.120Z,83.44
2019-03-01T06:11:48.012Z,83.69
2019-03-01T06:15:15.535Z,83.11
2019-03-01T06:18:19.300Z,82.84
2019-03-01T06:20:52.309Z,83.41
2019-03-01T06:23:51.128Z,83.65
2019-03-01T06:26:49.795Z,83.87
2019-03-01T06:29:43.748Z,83.97
2019-03-01T06:32:36.218Z,84.39
2019-03-01T06:35:34.757Z,84.65
2019-03-01T06:39:12.042Z,84.27
2019-03-01T06:41:55.702Z,84.64
2019-03-01T06:44:57.211Z,84.46
2019-03-01T06:47:38.816Z,84.03
2019-03-01T06:50:17.144Z,84.23
2019-03-01T06:52:44.324Z,83.94
2019-03-01T06:55:36.728Z,83.24
2019-03-01T06:58:05.076Z,83.37
2019-03-01T07:00:35.842Z,83.19
2019-03-01T07:03:03.205Z,83.02
2019-03-01T07:05:30.418Z,81.84
2019-03-01T07:07:57.580Z,81.26
2019-03-01T07:10:25.037Z,80.49
2019-03-01T07:12:52.292Z,80.18
2019-03-01T07:15:19.613Z,79.00
2019-03-01T07:17:46.891Z,77.96
2019-03-01T07:20:14.077Z,77.27
2019-03-01T07:22:41.381Z,76.62
2019-03-01T07:25:08.616Z,76.82
2019-03-01T07:27:35.794Z,77.27
2019-03-01T07:30:03.364Z,77.60
2019-03-01T07:32:30.626Z,76.93
2019-03-01T07:34:57.814Z,77.19
2019-03-01T07:37:25.148Z,77.36
2019-03-01T07:39:52.370Z,77.17
2019-03-01T07:42:19.617Z,77.59
2019-03-01T07:44:46.841Z,77.67
2019-03-01T07:47:14.125Z,77.64
2019-03-01T07:49:41.408Z,76.32
2019-03-01T07:52:08.624Z,76.84
2019-03-01T07:54:36.014Z,77.24
2019-03-01T07:57:03.329Z,77.19
2019-03-01T07:59:31.818Z,76.27
2019-03-01T08:02:00.776Z,75.93
2019-03-01T08:04:29.693Z,75.40
2019-03-01T08:06:57.068Z,74.94
2019-03-01T08:09:24.276Z,74.58
2019-03-01T08:11:51.533Z,72.53
2019-03-01T08:14:18.751Z,71.62
2019-03-01T08:16:46.191Z,70.94
2019-03-01T08:19:17.058Z,70.48
2019-03-01T08:21:42.811Z,70.28
2019-03-01T08:24:11.932Z,69.95
2019-03-01T08:26:39.222Z,68.70
2019-03-01T08:29:06.827Z,69.86
2019-03-01T08:31:34.150Z,70.87
2019-03-01T08:34:02.195Z,71.81
2019-03-01T08:36:29.402Z,72.58
2019-03-01T08:38:56.623Z,72.91
2019-03-01T08:41:24.967Z,72.81
2019-03-01T08:43:52.890Z,72.79
2019-03-01T08:46:20.113Z,72.71
2019-03-01T08:48:47.292Z,72.77
2019-03-01T08:51:14.514Z,72.84
2019-03-01T08:53:41.722Z,72.70
2019-03-01T08:56:11.037Z,72.64
2019-03-01T08:58:41.561Z,71.23
2019-03-01T09:01:09.806Z,69.31
2019-03-01T09:03:41.749Z,68.80
2019-03-01T09:06:08.976Z,68.33
2019-03-01T09:08:36.341Z,68.20
2019-03-01T09:11:05.593Z,69.17
2019-03-01T09:13:32.723Z,69.82
2019-03-01T09:16:00.015Z,70.13
2019-03-01T09:18:27.193Z,70.53
2019-03-01T09:20:54.292Z,71.14
2019-03-01T09:23:26.424Z,71.29
2019-03-01T09:25:50.660Z,71.26
2019-03-01T09:28:17.901Z,71.12
2019-03-01T09:30:45.352Z,69.69
2019-03-01T09:33:12.390Z,69.43
2019-03-01T09:35:59.129Z,69.10
2019-03-01T09:38:26.292Z,69.34
2019-03-01T09:41:36.539Z,69.42
2019-03-01T09:44:23.602Z,69.14
2019-03-01T09:46:50.862Z,68.74
2019-03-01T09:49:18.052Z,68.58
2019-03-01T09:52:26.126Z,69.01
2019-03-01T09:54:53.623Z,69.38
2019-03-01T09:57:20.852Z,68.55
2019-03-01T09:59:48.091Z,68.33
2019-03-01T10:02:15.443Z,69.00
2019-03-01T10:04:42.879Z,69.75
2019-03-01T10:07:11.933Z,70.00
2019-03-01T10:09:39.190Z,70.03
2019-03-01T10:12:06.544Z,70.18
2019-03-01T10:14:33.793Z,69.74
2019-03-01T10:17:01.013Z,68.31
2019-03-01T10:19:47.698Z,67.58
2019-03-01T10:22:15.010Z,67.46
2019-03-01T10:24:42.212Z,66.04
2019-03-01T10:30:44.256Z,61.85
2019-03-01T10:33:12.201Z,59.48
2019-03-01T10:35:39.316Z,56.76
2019-03-01T10:41:07.953Z,53.13
2019-03-01T10:43:35.251Z,52.46
2019-03-01T10:46:14.803Z,51.77
2019-03-01T10:48:42.031Z,51.42
2019-03-01T10:51:09.210Z,51.74
2019-03-01T10:53:36.458Z,51.18
2019-03-01T10:56:03.638Z,51.88
2019-03-01T10:58:30.797Z,52.37
2019-03-01T11:00:58.341Z,54.09
2019-03-01T11:03:25.814Z,53.91
2019-03-01T11:06:33.753Z,55.64
2019-03-01T11:12:47.270Z,56.63
2019-03-01T11:18:15.263Z,55.75
2019-03-01T11:20:42.394Z,53.25
2019-03-01T11:23:21.547Z,52.81
2019-03-01T11:25:48.727Z,53.14
2019-03-01T11:28:16.237Z,53.64
2019-03-01T11:40:06.735Z,55.25
2019-03-01T11:42:34.436Z,54.43
2019-03-01T11:45:01.637Z,54.55
2019-03-01T11:47:30.650Z,54.17
2019-03-01T11:49:57.861Z,53.70
2019-03-01T11:52:25.075Z,54.30
2019-03-01T11:54:52.251Z,53.42
2019-03-01T11:57:19.500Z,52.37
2019-03-01T11:59:46.677Z,51.66
2019-03-01T12:02:13.895Z,51.10
2019-03-01T12:14:05.107Z,54.67
2019-03-01T12:16:44.035Z,56.08
2019-03-01T12:27:53.218Z,60.82
2019-03-01T12:33:22.374Z,61.39
2019-03-01T12:36:01.541Z,61.80
2019-03-01T12:38:40.725Z,61.91
2019-03-01T12:41:07.897Z,62.11
2019-03-01T12:43:35.400Z,61.89
2019-03-01T12:49:03.981Z,60.68
2019-03-01T12:52:11.968Z,61.41
2019-03-01T12:54:39.659Z,61.10
2019-03-01T12:57:26.401Z,60.24
2019-03-01T13:03:14.175Z,59.67
2019-03-01T13:05:41.325Z,59.86
2019-03-01T13:08:08.859Z,59.47
2019-03-01T13:10:36.824Z,59.06
2019-03-01T13:16:12.071Z,57.22
2019-03-01T13:18:39.345Z,55.99
2019-03-01T13:21:09.593Z,54.41
2019-03-01T13:23:46.654Z,53.68
2019-03-01T13:26:13.840Z,53.22
2019-03-01T13:28:43.847Z,54.43
2019-03-01T13:31:11.477Z,54.27
2019-03-01T13:33:39.251Z,54.49
2019-03-01T13:36:06.408Z,54.77
2019-03-01T13:38:35.093Z,54.12
2019-03-01T13:41:02.991Z,53.95
2019-03-01T13:43:30.511Z,52.67
2019-03-01T13:45:57.752Z,52.59
2019-03-01T13:48:25.305Z,53.32
2019-03-01T13:50:52.363Z,53.39
2019-03-01T13:53:19.607Z,53.30
2019-03-01T13:55:46.757Z,53.30
2019-03-01T13:58:13.972Z,53.22
2019-03-01T14:00:41.547Z,52.70
2019-03-01T14:03:08.615Z,53.09
2019-03-01T14:05:35.682Z,53.70
2019-03-01T14:08:09.068Z,54.35
2019-03-01T14:10:33.039Z,54.47
2019-03-01T14:13:00.256Z,54.45
2019-03-01T14:15:27.529Z,56.05
2019-03-01T14:18:00.617Z,56.26
2019-03-01T14:20:23.766Z,56.89
2019-03-01T14:22:51.004Z,56.67
2019-03-01T14:25:18.458Z,56.80
2019-03-01T14:27:45.995Z,57.22
2019-03-01T14:30:15.501Z,56.95
2019-03-01T14:32:42.693Z,57.90
2019-03-01T14:35:10.704Z,58.26
2019-03-01T14:37:37.919Z,58.94
2019-03-01T14:40:07.112Z,59.01
2019-03-01T14:42:34.325Z,58.94
2019-03-01T14:45:01.571Z,59.27
2019-03-01T14:47:32.589Z,59.45
2019-03-01T14:49:58.738Z,58.90
2019-03-01T14:52:26.250Z,58.86
2019-03-01T14:54:54.149Z,58.85
2019-03-01T14:57:30.725Z,58.30
2019-03-01T15:00:14.234Z,57.84
2019-03-01T15:02:53.273Z,57.37
2019-03-01T15:05:20.892Z,57.22
2019-03-01T15:07:48.065Z,57.11
2019-03-01T15:10:16.005Z,57.31
2019-03-01T15:12:43.304Z,58.00
2019-03-01T15:15:11.613Z,58.35
2019-03-01T15:17:39.216Z,58.50
2019-03-01T15:20:08.943Z,58.48
2019-03-01T15:22:36.186Z,58.30
2019-03-01T15:25:04.161Z,58.21
2019-03-01T15:27:31.401Z,58.73
2019-03-01T15:29:58.611Z,59.18
2019-03-01T15:32:26.044Z,59.90
2019-03-01T15:34:53.225Z,60.71
2019-03-01T15:37:20.443Z,61.48
2019-03-01T15:39:47.925Z,62.20
2019-03-01T15:42:17.880Z,62.86
2019-03-01T15:44:44.495Z,63.05
2019-03-01T15:47:11.647Z,63.36
2019-03-01T15:49:38.854Z,63.52
2019-03-01T15:52:06.318Z,63.46
2019-03-01T15:54:35.857Z,63.14
2019-03-01T15:57:02.849Z,63.76
2019-03-01T15:59:30.037Z,63.99
2019-03-01T16:01:57.269Z,63.91
2019-03-01T16:04:24.797Z,63.92
2019-03-01T16:06:55.247Z,64.02
2019-03-01T16:09:21.727Z,63.56
2019-03-01T16:11:53.206Z,63.88
2019-03-01T16:14:21.102Z,64.15
2019-03-01T16:16:50.164Z,64.48
2019-03-01T16:19:17.402Z,65.22
2019-03-01T16:21:44.580Z,65.84
2019-03-01T16:24:12.214Z,66.01
2019-03-01T16:26:39.417Z,66.24
2019-03-01T16:29:07.311Z,66.46
2019-03-01T16:31:35.808Z,66.82
2019-03-01T16:34:04.358Z,67.51
2019-03-01T16:36:52.851Z,68.17
2019-03-01T16:39:20.596Z,68.11
2019-03-01T16:41:51.783Z,68.52
2019-03-01T16:44:19.042Z,69.39
2019-03-01T16:46:46.552Z,70.31
2019-03-01T16:49:13.757Z,71.10
2019-03-01T16:51:41.368Z,71.66
2019-03-01T16:54:08.925Z,71.91
2019-03-01T16:56:38.535Z,72.24
2019-03-01T16:59:07.315Z,72.74
2019-03-01T17:01:34.318Z,73.62
2019-03-01T17:04:01.508Z,73.46
2019-03-01T17:06:29.244Z,72.98
2019-03-01T17:08:56.422Z,72.65
2019-03-01T17:11:23.944Z,72.66
2019-03-01T17:13:51.456Z,72.69
2019-03-01T17:16:20.416Z,72.82
2019-03-01T17:18:48.606Z,72.88
2019-03-01T17:21:16.621Z,72.16
2019-03-01T17:23:43.868Z,71.36
2019-03-01T17:26:11.068Z,71.43
2019-03-01T17:28:38.346Z,71.40
2019-03-01T17:31:05.583Z,70.85
2019-03-01T17:33:32.893Z,71.44
2019-03-01T17:36:00.194Z,72.12
2019-03-01T17:38:27.409Z,72.64
2019-03-01T17:40:54.586Z,72.75
2019-03-01T17:43:22.211Z,72.68
2019-03-01T17:45:49.435Z,73.18
2019-03-01T17:48:18.340Z,73.06
2019-03-01T17:50:45.776Z,72.76
2019-03-01T17:53:12.962Z,72.99
2019-03-01T17:55:40.170Z,71.83
2019-03-01T17:58:08.919Z,71.82
2019-03-01T18:00:37.094Z,72.25
2019-03-01T18:03:04.314Z,72.70
2019-03-01T18:05:31.544Z,73.08
2019-03-01T18:08:00.019Z,73.46
2019-03-01T18:10:28.696Z,73.70
2019-03-01T18:12:57.319Z,74.20
2019-03-01T18:15:24.820Z,74.06
2019-03-01T18:17:52.467Z,73.09
2019-03-01T18:20:19.759Z,72.73
2019-03-01T18:22:46.963Z,72.46
2019-03-01T18:25:14.407Z,72.37
2019-03-01T18:27:41.776Z,71.42
2019-03-01T18:30:12.448Z,71.42
2019-03-01T18:32:41.740Z,71.54
2019-03-01T18:35:11.432Z,71.99
2019-03-01T18:37:38.663Z,72.19
2019-03-01T18:40:07.290Z,72.00
2019-03-01T18:42:38.056Z,72.15
2019-03-01T18:45:07.079Z,72.35
2019-03-01T18:47:33.951Z,72.19
2019-03-01T18:50:01.158Z,72.23
2019-03-01T18:52:28.645Z,72.70
2019-03-01T18:54:55.945Z,72.46
2019-03-01T18:57:23.465Z,72.33
2019-03-01T18:59:50.787Z,72.30
2019-03-01T19:02:18.076Z,72.21
2019-03-01T19:04:45.304Z,72.62
2019-03-01T19:07:13.046Z,72.93
2019-03-01T19:09:40.220Z,73.14
2019-03-01T19:12:09.485Z,73.26
2019-03-01T19:14:39.208Z,73.30
2019-03-01T19:17:05.898Z,72.85
2019-03-01T19:19:33.207Z,72.61
2019-03-01T19:22:00.396Z,72.38
2019-03-01T19:24:27.576Z,72.08
2019-03-01T19:26:54.799Z,72.27
2019-03-01T19:29:22.309Z,71.91
2019-03-01T19:31:49.526Z,72.28
2019-03-01T19:37:17.925Z,71.93
2019-03-01T19:46:19.949Z,71.16
2019-03-01T19:48:59.052Z,70.47
2019-03-01T20:00:29.999Z,71.04
2019-03-01T20:05:58.582Z,70.84
2019-03-01T20:08:26.416Z,70.93
2019-03-01T20:11:16.000Z,71.04
2019-03-01T20:13:43.235Z,70.34
2019-03-01T20:16:51.306Z,69.80
2019-03-01T20:23:26.528Z,70.48
2019-03-01T20:32:35.204Z,70.54
2019-03-01T20:38:10.633Z,70.28
2019-03-01T20:40:37.851Z,70.46
2019-03-01T20:43:06.918Z,70.34
2019-03-01T20:45:59.998Z,70.29
2019-03-01T20:48:28.947Z,70.95
2019-03-01T20:51:02.941Z,71.05
2019-03-01T20:53:30.180Z,70.75
2019-03-01T20:55:57.744Z,70.65
2019-03-01T20:58:25.117Z,70.63
2019-03-01T21:00:52.299Z,70.49
2019-03-01T21:06:21.111Z,69.61
2019-03-01T21:08:48.321Z,69.67
2019-03-01T21:14:16.859Z,68.94
2019-03-01T21:16:44.853Z,69.48
2019-03-01T21:19:19.046Z,69.88
2019-03-01T21:21:46.834Z,70.45
2019-03-01T21:24:14.016Z,70.48
2019-03-01T21:26:41.285Z,69.68
2019-03-01T21:29:08.955Z,68.95
2019-03-01T21:34:48.329Z,69.24
2019-03-01T21:37:16.638Z,69.17
2019-03-01T21:40:46.916Z,69.06
2019-03-01T21:43:21.028Z,69.09
2019-03-01T21:45:48.313Z,69.48
2019-03-01T21:48:18.632Z,69.50
2019-03-01T21:53:57.562Z,69.16
2019-03-01T22:00:10.930Z,68.96
2019-03-01T22:02:38.498Z,69.22
2019-03-01T22:05:25.150Z,69.27
2019-03-01T22:08:12.933Z,68.42
2019-03-01T22:10:47.026Z,68.68
2019-03-01T22:13:16.028Z,69.36
2019-03-01T22:15:45.403Z,69.68
2019-03-01T22:18:12.623Z,70.20
2019-03-01T22:20:59.217Z,70.79
2019-03-01T22:23:26.493Z,71.27
2019-03-01T22:25:55.601Z,71.55
2019-03-01T22:28:43.119Z,71.77
2019-03-01T22:31:10.333Z,71.89
2019-03-01T22:33:39.305Z,71.84
2019-03-01T22:36:07.172Z,71.78
2019-03-01T22:39:16.599Z,71.79
2019-03-01T22:41:50.153Z,71.57
2019-03-01T22:44:17.353Z,70.65
2019-03-01T22:47:25.412Z,70.23
2019-03-01T22:49:52.570Z,69.42
2019-03-01T22:52:20.142Z,69.05
2019-03-01T22:57:27.828Z,69.79
2019-03-01T23:09:18.944Z,71.32
2019-03-01T23:15:19.780Z,71.72
2019-03-01T23:17:46.842Z,71.61
2019-03-01T23:20:14.064Z,71.65
2019-03-01T23:22:42.668Z,72.07
2019-03-01T23:25:30.565Z,72.00
2019-03-01T23:27:57.793Z,72.04
2019-03-01T23:39:48.005Z,72.87
2019-03-01T23:42:34.646Z,72.76
2019-03-01T23:51:06.738Z,71.44
2019-03-01T23:54:33.851Z,72.15
2019-03-01T23:57:20.567Z,72.82
